Goldsberry, Missouri
Current Conditions -  °F | °C
As of 9:33 PM on Saturday 22 Nov 2014 (Local Time) from KIRK Reporting Station
Broken Clouds Broken Clouds  
Wind Chill: 53°   Ceiling: 1100
Heat Index: 53°   Visibility: 10mi
Dew Point: 50°   Wind: 14mph
Humidity: 89%   Direction: 190°S
Pressure: 29.75"   Gusts: 24mph
Location:  39.9344°N, 92.7744°W
Report Text: KIRK 230333Z AUTO 19012G21KT 10SM BKN011 12/10 A2975 RMK AO2 T01170100
Loading
Personal Weather Stations






























Interactive Weather Map New forecast layout! Learn more

10-Day Weather Forecast

Advertisements
Track Severe Weather on mobile